createdAt,value
2022-08-09T04:56:16.659Z,100104.09
2022-08-09T04:58:47.646Z,100108.56
2022-08-09T05:01:18.943Z,100105.66
2022-08-09T05:03:46.111Z,100104.97
2022-08-09T05:06:21.732Z,100104.00
2022-08-09T05:09:00.838Z,100111.13
2022-08-09T05:11:32.366Z,100112.56
2022-08-09T05:14:05.934Z,100114.03
2022-08-09T05:16:58.526Z,100110.88
2022-08-09T05:19:25.832Z,100117.44
2022-08-09T05:21:55.497Z,100116.38
2022-08-09T05:24:24.892Z,100117.56
2022-08-09T05:26:53.062Z,100121.41
2022-08-09T05:29:24.442Z,100122.56
2022-08-09T05:32:00.479Z,100115.06
2022-08-09T05:34:32.323Z,100114.81
2022-08-09T05:37:06.046Z,100111.63
2022-08-09T05:39:43.576Z,100115.22
2022-08-09T05:42:17.470Z,100119.97
2022-08-09T05:44:52.413Z,100114.38
2022-08-09T05:47:22.835Z,100122.31
2022-08-09T05:50:30.248Z,100112.84
2022-08-09T05:52:44.610Z,100122.19
2022-08-09T05:55:21.774Z,100119.47
2022-08-09T05:57:56.776Z,100119.50
2022-08-09T06:00:29.259Z,100122.22
2022-08-09T06:02:59.765Z,100123.50
2022-08-09T06:05:30.816Z,100115.03
2022-08-09T06:08:19.395Z,100121.72
2022-08-09T06:10:55.312Z,100107.66
2022-08-09T06:13:23.819Z,100106.38
2022-08-09T06:15:52.774Z,100108.66
2022-08-09T06:18:24.851Z,100104.75
2022-08-09T06:20:57.107Z,100105.44
2022-08-09T06:23:58.143Z,100105.50
2022-08-09T06:26:20.075Z,100102.84
2022-08-09T06:29:01.018Z,100107.47
2022-08-09T06:31:40.314Z,100105.72
2022-08-09T06:34:23.411Z,100105.44
2022-08-09T06:36:57.310Z,100101.06
2022-08-09T06:39:48.721Z,100093.50
2022-08-09T06:42:24.415Z,100096.03
2022-08-09T06:44:54.295Z,100094.94
2022-08-09T06:47:23.715Z,100103.06
2022-08-09T06:50:13.898Z,100103.94
2022-08-09T06:52:47.220Z,100100.81
2022-08-09T06:55:23.187Z,100102.31
2022-08-09T06:58:03.371Z,100099.44
2022-08-09T07:00:51.715Z,100103.16
2022-08-09T07:03:26.998Z,100097.66
2022-08-09T07:06:04.093Z,100105.09
2022-08-09T07:08:36.944Z,100098.34
2022-08-09T07:11:06.617Z,100100.84
2022-08-09T07:14:00.231Z,100106.28
2022-08-09T07:16:43.362Z,100109.31
2022-08-09T07:19:35.594Z,100100.13
2022-08-09T07:22:03.326Z,100105.94
2022-08-09T07:24:31.903Z,100105.78
2022-08-09T07:27:11.088Z,100112.56
2022-08-09T07:29:52.303Z,100107.56
2022-08-09T07:32:32.605Z,100105.72
2022-08-09T07:35:10.403Z,100106.84
2022-08-09T07:37:45.436Z,100100.19
2022-08-09T07:40:20.752Z,100106.44
2022-08-09T07:42:59.826Z,100115.28
2022-08-09T07:45:37.974Z,100110.50
2022-08-09T07:48:22.553Z,100114.75
2022-08-09T07:51:10.244Z,100114.34
2022-08-09T07:56:45.074Z,100117.16
2022-08-09T07:59:34.811Z,100111.66
2022-08-09T08:02:33.334Z,100116.47
2022-08-09T08:05:03.514Z,100112.59
2022-08-09T08:08:43.035Z,100114.56
2022-08-09T08:10:34.303Z,100117.81
2022-08-09T08:13:03.839Z,100116.19
2022-08-09T08:15:35.506Z,100113.50
2022-08-09T08:18:05.406Z,100113.44
2022-08-09T08:20:33.492Z,100110.41
2022-08-09T08:23:16.236Z,100105.78
2022-08-09T08:25:49.794Z,100120.69
2022-08-09T08:28:26.061Z,100114.63
2022-08-09T08:31:10.515Z,100118.50
2022-08-09T08:33:52.783Z,100114.25
2022-08-09T08:36:28.836Z,100123.34
2022-08-09T08:38:58.278Z,100110.59
2022-08-09T08:41:27.089Z,100116.53
2022-08-09T08:44:14.903Z,100107.63
2022-08-09T08:46:59.996Z,100103.84
2022-08-09T08:49:46.503Z,100110.38
2022-08-09T08:55:10.256Z,100111.00
2022-08-09T08:57:38.208Z,100113.44
2022-08-09T09:00:17.013Z,100105.16
2022-08-09T09:07:30.312Z,100114.06
2022-08-09T09:10:09.361Z,100107.63
2022-08-09T09:12:37.979Z,100113.31
2022-08-09T09:15:06.899Z,100109.25
2022-08-09T09:17:49.465Z,100103.22
2022-08-09T09:20:21.682Z,100108.31
2022-08-09T09:23:01.691Z,100104.25
2022-08-09T09:26:01.443Z,100110.63
2022-08-09T09:29:02.521Z,100112.91
2022-08-09T09:32:04.622Z,100114.69
2022-08-09T09:34:15.313Z,100118.03
2022-08-09T09:36:52.725Z,100118.38
2022-08-09T09:39:42.894Z,100109.75
2022-08-09T09:42:27.748Z,100113.59
2022-08-09T09:44:59.944Z,100110.81
2022-08-09T09:47:32.654Z,100113.22
2022-08-09T09:50:13.797Z,100118.38
2022-08-09T09:52:54.720Z,100108.72
2022-08-09T09:55:29.331Z,100099.66
2022-08-09T09:58:16.413Z,100105.16
2022-08-09T10:01:00.244Z,100102.03
2022-08-09T10:03:43.403Z,100109.19
2022-08-09T10:06:13.089Z,100101.56
2022-08-09T10:08:54.764Z,100104.09
2022-08-09T10:11:59.774Z,100100.84
2022-08-09T10:14:30.319Z,100102.16
2022-08-09T10:17:11.439Z,100103.03
2022-08-09T10:19:46.809Z,100107.16
2022-08-09T10:22:34.570Z,100095.41
2022-08-09T10:25:12.190Z,100096.09
2022-08-09T10:27:56.799Z,100094.63
2022-08-09T10:34:04.344Z,100092.66
2022-08-09T10:36:11.482Z,100098.44
2022-08-09T10:38:55.779Z,100090.06
2022-08-09T10:41:25.364Z,100090.09
2022-08-09T10:44:01.035Z,100086.16
2022-08-09T10:46:55.149Z,100088.16
2022-08-09T10:49:50.017Z,100085.19
2022-08-09T10:52:44.759Z,100074.97
2022-08-09T10:55:29.092Z,100086.34
2022-08-09T10:58:34.637Z,100080.69
2022-08-09T11:03:13.436Z,100082.34
2022-08-09T11:04:30.944Z,100080.19
2022-08-09T11:07:00.023Z,100075.25
2022-08-09T11:09:47.393Z,100076.16
2022-08-09T11:12:21.739Z,100084.41
2022-08-09T11:15:19.304Z,100078.47
2022-08-09T11:18:03.017Z,100079.09
2022-08-09T11:20:47.472Z,100079.16
2022-08-09T11:23:23.806Z,100072.66
2022-08-09T11:26:04.086Z,100071.97
2022-08-09T11:28:54.258Z,100075.22
2022-08-09T11:31:43.192Z,100067.50
2022-08-09T11:34:42.179Z,100062.72
2022-08-09T11:37:41.073Z,100052.69
2022-08-09T11:40:13.786Z,100053.09
2022-08-09T11:42:50.049Z,100047.47
2022-08-09T11:45:37.885Z,100050.94
2022-08-09T11:48:26.120Z,100036.19
2022-08-09T11:52:54.133Z,100035.84
2022-08-09T11:54:27.990Z,100041.97
2022-08-09T11:57:47.686Z,100049.09
2022-08-09T12:00:31.790Z,100055.03
2022-08-09T12:03:09.954Z,100050.47
2022-08-09T12:05:54.690Z,100052.50
2022-08-09T12:08:24.389Z,100039.69
2022-08-09T12:10:57.484Z,100041.81
2022-08-09T12:14:08.565Z,100031.97
2022-08-09T12:16:42.902Z,100042.16
2022-08-09T12:19:13.169Z,100034.09
2022-08-09T12:21:50.708Z,100021.97
2022-08-09T12:24:24.568Z,100023.28
2022-08-09T12:28:59.579Z,100026.16
2022-08-09T12:30:01.427Z,100028.81
2022-08-09T12:32:44.737Z,100024.66
2022-08-09T12:35:13.387Z,100031.88
2022-08-09T12:37:51.476Z,100026.09
2022-08-09T12:40:24.432Z,100012.94
2022-08-09T12:42:54.068Z,100007.94
2022-08-09T12:45:34.735Z,100012.84
2022-08-09T12:48:19.909Z,100007.25
2022-08-09T12:50:57.009Z,100022.97
2022-08-09T12:53:37.714Z,100012.03
2022-08-09T12:56:39.488Z,100015.13
2022-08-09T12:59:09.033Z,100010.53
2022-08-09T13:01:42.828Z,100007.84
2022-08-09T13:04:36.420Z,100007.63
2022-08-09T13:07:16.783Z,99997.47
2022-08-09T13:09:55.976Z,100004.66
2022-08-09T13:12:29.489Z,100005.72
2022-08-09T13:15:09.101Z,100005.09
2022-08-09T13:18:03.514Z,100010.38
2022-08-09T13:22:33.600Z,100002.09
2022-08-09T13:24:16.270Z,100008.66
2022-08-09T13:26:49.805Z,100006.22
2022-08-09T13:29:42.100Z,99998.44
2022-08-09T13:32:17.472Z,99992.81
2022-08-09T13:34:49.314Z,99999.63
2022-08-09T13:37:50.841Z,99996.16
2022-08-09T13:41:51.144Z,99994.28
2022-08-09T13:42:58.323Z,99993.84
2022-08-09T13:45:32.220Z,99999.94
2022-08-09T13:48:14.505Z,100004.41
2022-08-09T13:50:43.023Z,100006.84
2022-08-09T13:53:10.453Z,100005.69
2022-08-09T13:55:38.567Z,100002.19
2022-08-09T13:58:11.486Z,100003.94
2022-08-09T14:00:46.830Z,99996.38
2022-08-09T14:04:03.366Z,100003.50
2022-08-09T14:06:14.573Z,100002.13
2022-08-09T14:08:47.158Z,100000.97
2022-08-09T14:11:16.151Z,99998.44
2022-08-09T14:14:23.075Z,99995.78
2022-08-09T14:16:31.542Z,100006.50
2022-08-09T14:19:03.816Z,100002.06
2022-08-09T14:21:32.234Z,99999.97
2022-08-09T14:24:05.602Z,100004.34
2022-08-09T14:26:51.806Z,100006.03
2022-08-09T14:30:18.598Z,99997.16
2022-08-09T14:32:13.218Z,100000.03
2022-08-09T14:34:44.297Z,99994.63
2022-08-09T14:37:12.408Z,99993.03
2022-08-09T14:39:46.895Z,99997.63
2022-08-09T14:42:28.937Z,99993.31
2022-08-09T14:46:39.883Z,99990.13
2022-08-09T14:47:59.753Z,99996.16
2022-08-09T14:50:32.971Z,99986.50
2022-08-09T14:53:10.946Z,99985.41
2022-08-09T14:55:42.046Z,99996.25
2022-08-09T14:58:11.178Z,99989.09
2022-08-09T15:00:42.259Z,99998.59
2022-08-09T15:03:16.672Z,99998.38
2022-08-09T15:05:52.343Z,99999.22
2022-08-09T15:08:25.785Z,99997.63
2022-08-09T15:11:00.979Z,99996.38
2022-08-09T15:13:48.194Z,100002.16
2022-08-09T15:16:20.576Z,99999.72
2022-08-09T15:18:49.352Z,99995.72
2022-08-09T15:22:00.743Z,100001.13
2022-08-09T15:24:12.495Z,100001.63
2022-08-09T15:26:46.027Z,100009.44
2022-08-09T15:30:58.148Z,100015.69
2022-08-09T15:32:05.518Z,100008.91
2022-08-09T15:34:54.866Z,100018.34
2022-08-09T15:37:37.181Z,100017.44
2022-08-09T15:40:32.401Z,100019.56
2022-08-09T15:43:03.512Z,100019.75
2022-08-09T15:45:31.139Z,100014.53
2022-08-09T15:48:28.894Z,100021.66
2022-08-09T15:51:01.282Z,100020.56
2022-08-09T15:54:05.792Z,100016.69
2022-08-09T15:56:31.093Z,100020.00
2022-08-09T15:58:58.912Z,100013.56
2022-08-09T16:01:26.229Z,100018.88
2022-08-09T16:03:53.968Z,100019.84
2022-08-09T16:06:35.066Z,100017.47
2022-08-09T16:09:05.899Z,100016.34
2022-08-09T16:11:33.671Z,100016.13
2022-08-09T16:14:08.109Z,100013.56
2022-08-09T16:16:45.908Z,100013.56
2022-08-09T16:19:15.898Z,100024.72
2022-08-09T16:21:48.774Z,100015.13
2022-08-09T16:24:33.261Z,100023.41
2022-08-09T16:27:05.288Z,100018.03
2022-08-09T16:29:37.844Z,100017.06
2022-08-09T16:32:34.262Z,100015.97
2022-08-09T16:35:04.931Z,100010.66
2022-08-09T16:37:53.639Z,100020.44
2022-08-09T16:40:29.839Z,100020.31
2022-08-09T16:43:07.787Z,100021.25
2022-08-09T16:45:37.216Z,100020.38
2022-08-09T16:48:42.732Z,100019.25
2022-08-09T16:51:07.340Z,100022.50
2022-08-09T16:53:37.167Z,100025.91
2022-08-09T16:56:10.289Z,100024.63
2022-08-09T16:58:49.946Z,100019.59
2022-08-09T17:01:19.288Z,100026.09
2022-08-09T17:03:51.468Z,100029.94
2022-08-09T17:06:28.866Z,100030.75
2022-08-09T17:09:16.125Z,100029.31
2022-08-09T17:11:48.189Z,100029.78
2022-08-09T17:14:25.576Z,100029.16
2022-08-09T17:17:26.178Z,100040.13
2022-08-09T17:20:32.766Z,100039.78
2022-08-09T17:22:52.092Z,100037.19
2022-08-09T17:25:22.231Z,100049.44
2022-08-09T17:27:54.550Z,100048.63
2022-08-09T17:30:28.786Z,100051.38
2022-08-09T17:33:05.686Z,100049.31
2022-08-09T17:35:49.998Z,100051.25
2022-08-09T17:38:33.922Z,100045.09
2022-08-09T17:41:04.700Z,100048.47
2022-08-09T17:43:35.686Z,100054.59
2022-08-09T17:46:09.897Z,100057.47
2022-08-09T17:48:46.728Z,100057.75
2022-08-09T17:51:45.018Z,100064.53
2022-08-09T17:54:15.214Z,100058.03
2022-08-09T17:56:43.357Z,100068.03
2022-08-09T17:59:16.166Z,100074.47
2022-08-09T18:02:06.770Z,100071.19
2022-08-09T18:04:33.676Z,100071.44
2022-08-09T18:07:07.652Z,100071.72
2022-08-09T18:09:41.509Z,100078.28
2022-08-09T18:12:19.651Z,100084.03
2022-08-09T18:14:55.206Z,100085.25
2022-08-09T18:18:02.578Z,100091.81
2022-08-09T18:20:57.443Z,100087.06
2022-08-09T18:23:07.350Z,100093.28
2022-08-09T18:25:53.238Z,100089.66
2022-08-09T18:30:39.883Z,100095.88
2022-08-09T18:31:32.107Z,100104.34
2022-08-09T18:34:09.269Z,100112.75
2022-08-09T18:36:36.606Z,100116.84
2022-08-09T18:39:06.486Z,100117.06
2022-08-09T18:41:36.220Z,100118.56
2022-08-09T18:44:13.064Z,100123.88
2022-08-09T18:46:50.534Z,100124.56
2022-08-09T18:49:32.067Z,100127.00
2022-08-09T18:52:10.082Z,100126.88
2022-08-09T18:54:49.486Z,100132.75
2022-08-09T18:57:22.332Z,100137.81
2022-08-09T18:59:56.454Z,100140.72
2022-08-09T19:02:32.111Z,100136.53
2022-08-09T19:05:20.596Z,100139.97
2022-08-09T19:08:04.656Z,100132.44
2022-08-09T19:10:39.026Z,100140.50
2022-08-09T19:13:23.305Z,100139.25
2022-08-09T19:16:05.720Z,100147.63
2022-08-09T19:18:39.693Z,100148.56
2022-08-09T19:21:10.787Z,100144.63
2022-08-09T19:24:31.685Z,100145.28
2022-08-09T19:26:32.337Z,100142.69
2022-08-09T19:29:15.138Z,100149.09
2022-08-09T19:31:51.132Z,100148.34
2022-08-09T19:34:23.208Z,100156.09
2022-08-09T19:36:53.032Z,100161.34
2022-08-09T19:39:43.773Z,100161.22
2022-08-09T19:44:01.684Z,100147.97
2022-08-09T19:46:15.584Z,100152.22
2022-08-09T19:49:02.079Z,100152.03
2022-08-09T19:51:31.380Z,100144.78
2022-08-09T19:54:00.346Z,100153.59
2022-08-09T19:56:29.370Z,100153.13
2022-08-09T19:59:18.392Z,100158.06
2022-08-09T20:01:53.097Z,100155.97
2022-08-09T20:04:40.508Z,100162.06
2022-08-09T20:07:16.038Z,100162.38
2022-08-09T20:09:50.126Z,100160.28
2022-08-09T20:12:31.833Z,100164.44
2022-08-09T20:16:33.708Z,100159.06
2022-08-09T20:18:00.067Z,100165.63
2022-08-09T20:20:28.919Z,100164.31
2022-08-09T20:22:56.806Z,100163.00
2022-08-09T20:28:27.382Z,100164.72
2022-08-09T20:30:55.396Z,100167.25
2022-08-09T20:33:22.877Z,100165.63
2022-08-09T20:35:51.623Z,100175.19
2022-08-09T20:38:34.003Z,100185.59
2022-08-09T20:41:09.128Z,100182.66
2022-08-09T20:43:36.750Z,100179.13
2022-08-09T20:46:41.667Z,100189.50
2022-08-09T20:48:59.708Z,100189.00
2022-08-09T20:51:27.902Z,100187.34
2022-08-09T20:53:58.455Z,100189.53
2022-08-09T20:56:31.815Z,100193.91
2022-08-09T20:59:05.036Z,100188.19
2022-08-09T21:01:50.660Z,100204.00
2022-08-09T21:05:54.030Z,100192.31
2022-08-09T21:07:11.577Z,100193.16
2022-08-09T21:09:45.596Z,100188.00
2022-08-09T21:15:23.809Z,100204.84
2022-08-09T21:18:25.553Z,100198.06
2022-08-09T21:20:54.150Z,100190.44
2022-08-09T21:23:26.604Z,100195.06
2022-08-09T21:26:10.582Z,100193.41
2022-08-09T21:28:38.418Z,100193.16
2022-08-09T21:31:18.113Z,100192.84
2022-08-09T21:33:51.295Z,100193.38
2022-08-09T21:36:27.769Z,100201.00
2022-08-09T21:38:59.204Z,100195.53
2022-08-09T21:42:03.548Z,100203.69
2022-08-09T21:44:33.939Z,100204.78
2022-08-09T21:47:07.472Z,100201.50
2022-08-09T21:49:40.401Z,100200.66
2022-08-09T21:52:16.787Z,100195.50
2022-08-09T21:55:03.162Z,100193.28
2022-08-09T21:57:59.599Z,100188.88
2022-08-09T22:03:59.093Z,100194.81
2022-08-09T22:06:28.462Z,100198.00
2022-08-09T22:08:55.607Z,100195.53
2022-08-09T22:12:05.770Z,100196.59
2022-08-09T22:14:10.866Z,100196.31
2022-08-09T22:16:40.630Z,100191.66
2022-08-09T22:19:23.952Z,100196.25
2022-08-09T22:21:55.199Z,100195.13
2022-08-09T22:24:24.166Z,100197.81
2022-08-09T22:26:53.244Z,100187.50
2022-08-09T22:29:28.982Z,100188.03
2022-08-09T22:32:01.621Z,100189.88
2022-08-09T22:34:29.955Z,100177.94
2022-08-09T22:36:58.811Z,100185.75
2022-08-09T22:39:56.135Z,100191.13
2022-08-09T22:42:22.049Z,100190.53
2022-08-09T22:48:04.735Z,100197.00
2022-08-09T22:48:15.362Z,100199.91
2022-08-09T22:50:31.957Z,100195.28
2022-08-09T22:53:03.877Z,100194.16
2022-08-09T22:56:07.133Z,100196.28
2022-08-09T22:58:32.612Z,100196.47
2022-08-09T23:01:03.662Z,100202.66
2022-08-09T23:04:03.378Z,100202.63
2022-08-09T23:06:30.030Z,100197.16
2022-08-09T23:09:07.598Z,100206.31
2022-08-09T23:11:34.866Z,100202.47
2022-08-09T23:14:03.538Z,100204.06
2022-08-09T23:16:34.741Z,100202.38
2022-08-09T23:19:02.134Z,100205.03
2022-08-09T23:21:34.585Z,100208.16
2022-08-09T23:24:05.925Z,100197.84
2022-08-09T23:26:36.314Z,100198.84
2022-08-09T23:29:06.563Z,100201.50
2022-08-09T23:31:33.972Z,100198.75
2022-08-09T23:34:02.580Z,100199.50
2022-08-09T23:36:32.646Z,100204.06
2022-08-09T23:39:00.215Z,100199.63
2022-08-09T23:41:29.483Z,100205.53
2022-08-09T23:44:02.472Z,100204.91
2022-08-09T23:46:30.462Z,100204.28
2022-08-09T23:48:59.741Z,100205.88
2022-08-09T23:51:28.176Z,100211.44
2022-08-09T23:54:02.155Z,100217.94
2022-08-09T23:56:52.243Z,100220.31
2022-08-09T23:59:22.057Z,100220.22
